sensor_id;sensor_type;location;lat;lon;timestamp;pressure;altitude;pressure_sealevel;temperature;humidity
42603;BME280;28233;55.748;48.752;2023-07-09T00:00:53;98653.66;;;22.21;79.38
42603;BME280;28233;55.748;48.752;2023-07-09T00:02:57;98646.81;;;22.22;79.79
42603;BME280;28233;55.748;48.752;2023-07-09T00:05:00;98646.88;;;22.19;80.08
42603;BME280;28233;55.748;48.752;2023-07-09T00:07:11;98654.09;;;22.16;80.24
42603;BME280;28233;55.748;48.752;2023-07-09T00:09:18;98643.72;;;22.13;80.48
42603;BME280;28233;55.748;48.752;2023-07-09T00:11:22;98641.31;;;22.15;79.58
42603;BME280;28233;55.748;48.752;2023-07-09T00:13:26;98636.09;;;22.21;78.68
42603;BME280;28233;55.748;48.752;2023-07-09T00:15:29;98633.22;;;22.24;78.44
42603;BME280;28233;55.748;48.752;2023-07-09T00:17:33;98645.53;;;22.30;78.15
42603;BME280;28233;55.748;48.752;2023-07-09T00:19:36;98640.69;;;22.34;76.90
42603;BME280;28233;55.748;48.752;2023-07-09T00:21:39;98629.84;;;22.36;77.03
42603;BME280;28233;55.748;48.752;2023-07-09T00:23:43;98629.47;;;22.34;78.38
42603;BME280;28233;55.748;48.752;2023-07-09T00:25:46;98630.38;;;22.28;78.47
42603;BME280;28233;55.748;48.752;2023-07-09T00:27:50;98636.34;;;22.30;77.90
42603;BME280;28233;55.748;48.752;2023-07-09T00:29:53;98629.09;;;22.32;77.94
42603;BME280;28233;55.748;48.752;2023-07-09T00:31:56;98633.84;;;22.35;78.63
42603;BME280;28233;55.748;48.752;2023-07-09T00:33:59;98629.47;;;22.34;78.69
42603;BME280;28233;55.748;48.752;2023-07-09T00:36:14;98623.44;;;22.36;77.90
42603;BME280;28233;55.748;48.752;2023-07-09T00:38:22;98625.81;;;22.37;78.31
42603;BME280;28233;55.748;48.752;2023-07-09T00:40:24;98619.44;;;22.37;79.21
42603;BME280;28233;55.748;48.752;2023-07-09T00:42:28;98619.06;;;22.35;79.80
42603;BME280;28233;55.748;48.752;2023-07-09T00:44:31;98622.28;;;22.33;79.00
42603;BME280;28233;55.748;48.752;2023-07-09T00:48:39;98622.28;;;22.33;79.83
42603;BME280;28233;55.748;48.752;2023-07-09T00:50:49;98613.16;;;22.29;79.28
42603;BME280;28233;55.748;48.752;2023-07-09T00:52:58;98612.34;;;22.29;79.38
42603;BME280;28233;55.748;48.752;2023-07-09T00:55:10;98614.75;;;22.30;79.91
42603;BME280;28233;55.748;48.752;2023-07-09T00:57:17;98617.97;;;22.29;80.10
42603;BME280;28233;55.748;48.752;2023-07-09T00:59:24;98616.06;;;22.22;81.01
42603;BME280;28233;55.748;48.752;2023-07-09T01:01:34;98608.91;;;22.17;80.40
42603;BME280;28233;55.748;48.752;2023-07-09T01:03:58;98610.09;;;22.20;79.80
42603;BME280;28233;55.748;48.752;2023-07-09T01:06:02;98600.50;;;22.17;79.77
42603;BME280;28233;55.748;48.752;2023-07-09T01:08:07;98597.41;;;22.12;79.68
42603;BME280;28233;55.748;48.752;2023-07-09T01:10:15;98603.75;;;22.16;79.54
42603;BME280;28233;55.748;48.752;2023-07-09T01:12:20;98595.72;;;22.18;79.90
42603;BME280;28233;55.748;48.752;2023-07-09T01:14:24;98602.88;;;22.19;79.06
42603;BME280;28233;55.748;48.752;2023-07-09T01:16:31;98605.22;;;22.24;79.91
42603;BME280;28233;55.748;48.752;2023-07-09T01:18:34;98598.47;;;22.22;80.40
42603;BME280;28233;55.748;48.752;2023-07-09T01:20:39;98600.16;;;22.15;80.33
42603;BME280;28233;55.748;48.752;2023-07-09T01:22:42;98596.91;;;22.21;78.52
42603;BME280;28233;55.748;48.752;2023-07-09T01:24:56;98601.59;;;22.27;78.78
42603;BME280;28233;55.748;48.752;2023-07-09T01:27:10;98602.31;;;22.31;78.19
42603;BME280;28233;55.748;48.752;2023-07-09T01:29:13;98603.47;;;22.34;77.72
42603;BME280;28233;55.748;48.752;2023-07-09T01:31:17;98607.41;;;22.40;77.59
42603;BME280;28233;55.748;48.752;2023-07-09T01:33:21;98597.31;;;22.46;76.67
42603;BME280;28233;55.748;48.752;2023-07-09T01:35:27;98603.56;;;22.54;76.17
42603;BME280;28233;55.748;48.752;2023-07-09T01:37:32;98599.56;;;22.55;76.60
42603;BME280;28233;55.748;48.752;2023-07-09T01:39:35;98597.50;;;22.59;74.98
42603;BME280;28233;55.748;48.752;2023-07-09T01:41:38;98603.47;;;22.61;75.51
42603;BME280;28233;55.748;48.752;2023-07-09T01:43:43;98596.16;;;22.67;75.43
42603;BME280;28233;55.748;48.752;2023-07-09T01:45:46;98599.69;;;22.71;75.15
42603;BME280;28233;55.748;48.752;2023-07-09T01:47:52;98595.22;;;22.74;75.53
42603;BME280;28233;55.748;48.752;2023-07-09T01:49:56;98593.53;;;22.80;75.22
42603;BME280;28233;55.748;48.752;2023-07-09T01:52:07;98585.78;;;22.88;75.04
42603;BME280;28233;55.748;48.752;2023-07-09T01:54:14;98580.56;;;22.90;74.97
42603;BME280;28233;55.748;48.752;2023-07-09T01:56:19;98586.03;;;22.97;74.71
42603;BME280;28233;55.748;48.752;2023-07-09T01:58:22;98587.16;;;23.03;73.90
42603;BME280;28233;55.748;48.752;2023-07-09T02:00:27;98576.22;;;23.09;73.22
42603;BME280;28233;55.748;48.752;2023-07-09T02:02:31;98580.53;;;23.13;73.82
42603;BME280;28233;55.748;48.752;2023-07-09T02:04:34;98576.09;;;23.16;73.96
42603;BME280;28233;55.748;48.752;2023-07-09T02:06:37;98573.28;;;23.16;74.09
42603;BME280;28233;55.748;48.752;2023-07-09T02:08:40;98569.34;;;23.13;73.54
42603;BME280;28233;55.748;48.752;2023-07-09T02:10:44;98567.41;;;23.10;74.03
42603;BME280;28233;55.748;48.752;2023-07-09T02:12:47;98568.97;;;23.11;73.99
42603;BME280;28233;55.748;48.752;2023-07-09T02:14:50;98573.38;;;23.12;74.98
42603;BME280;28233;55.748;48.752;2023-07-09T02:16:53;98569.19;;;23.20;74.46
42603;BME280;28233;55.748;48.752;2023-07-09T02:18:57;98575.44;;;23.28;74.29
42603;BME280;28233;55.748;48.752;2023-07-09T02:20:59;98573.22;;;23.39;73.23
42603;BME280;28233;55.748;48.752;2023-07-09T02:23:03;98578.25;;;23.48;73.08
42603;BME280;28233;55.748;48.752;2023-07-09T02:25:06;98575.81;;;23.50;73.56
42603;BME280;28233;55.748;48.752;2023-07-09T02:27:10;98575.81;;;23.50;73.67
42603;BME280;28233;55.748;48.752;2023-07-09T02:29:13;98570.94;;;23.54;73.33
42603;BME280;28233;55.748;48.752;2023-07-09T02:31:16;98565.59;;;23.60;73.42
42603;BME280;28233;55.748;48.752;2023-07-09T02:33:19;98562.72;;;23.63;73.27
42603;BME280;28233;55.748;48.752;2023-07-09T02:35:23;98560.63;;;23.68;73.30
42603;BME280;28233;55.748;48.752;2023-07-09T02:37:26;98566.47;;;23.77;72.84
42603;BME280;28233;55.748;48.752;2023-07-09T02:39:29;98561.75;;;23.90;73.43
42603;BME280;28233;55.748;48.752;2023-07-09T02:41:31;98555.28;;;23.93;73.04
42603;BME280;28233;55.748;48.752;2023-07-09T02:43:34;98553.97;;;23.98;72.78
42603;BME280;28233;55.748;48.752;2023-07-09T02:45:37;98557.69;;;24.11;71.56
42603;BME280;28233;55.748;48.752;2023-07-09T02:47:40;98559.06;;;24.19;71.40
42603;BME280;28233;55.748;48.752;2023-07-09T02:49:43;98556.03;;;24.30;71.33
42603;BME280;28233;55.748;48.752;2023-07-09T02:51:46;98553.25;;;24.46;70.84
42603;BME280;28233;55.748;48.752;2023-07-09T02:53:49;98552.78;;;24.64;70.13
42603;BME280;28233;55.748;48.752;2023-07-09T02:55:51;98550.81;;;24.78;68.32
42603;BME280;28233;55.748;48.752;2023-07-09T02:57:54;98545.72;;;24.89;67.53
42603;BME280;28233;55.748;48.752;2023-07-09T02:59:57;98539.00;;;24.99;68.10
42603;BME280;28233;55.748;48.752;2023-07-09T03:02:00;98546.47;;;25.06;66.38
42603;BME280;28233;55.748;48.752;2023-07-09T03:04:04;98541.53;;;25.10;66.02
42603;BME280;28233;55.748;48.752;2023-07-09T03:06:07;98531.59;;;25.22;66.00
42603;BME280;28233;55.748;48.752;2023-07-09T03:08:09;98530.41;;;25.36;65.27
42603;BME280;28233;55.748;48.752;2023-07-09T03:10:12;98548.06;;;25.49;65.64
42603;BME280;28233;55.748;48.752;2023-07-09T03:12:15;98547.06;;;25.56;65.74
42603;BME280;28233;55.748;48.752;2023-07-09T03:14:18;98548.13;;;25.62;64.99
42603;BME280;28233;55.748;48.752;2023-07-09T03:16:21;98554.31;;;25.69;65.16
42603;BME280;28233;55.748;48.752;2023-07-09T03:18:24;98551.84;;;25.71;64.95
42603;BME280;28233;55.748;48.752;2023-07-09T03:20:27;98550.38;;;25.80;64.80
42603;BME280;28233;55.748;48.752;2023-07-09T03:22:29;98543.66;;;25.90;64.35
42603;BME280;28233;55.748;48.752;2023-07-09T03:24:32;98558.06;;;26.05;64.21
42603;BME280;28233;55.748;48.752;2023-07-09T03:26:35;98571.94;;;26.25;61.65
42603;BME280;28233;55.748;48.752;2023-07-09T03:28:38;98613.47;;;26.33;61.86
42603;BME280;28233;55.748;48.752;2023-07-09T03:30:45;98617.03;;;25.83;66.04
42603;BME280;28233;55.748;48.752;2023-07-09T03:32:48;98619.19;;;25.49;68.29
42603;BME280;28233;55.748;48.752;2023-07-09T03:34:51;98598.66;;;25.36;68.71
42603;BME280;28233;55.748;48.752;2023-07-09T03:36:55;98603.53;;;25.48;68.21
42603;BME280;28233;55.748;48.752;2023-07-09T03:38:58;98640.28;;;25.41;66.97
42603;BME280;28233;55.748;48.752;2023-07-09T03:41:02;98659.06;;;24.99;69.30
42603;BME280;28233;55.748;48.752;2023-07-09T03:43:06;98645.28;;;24.88;70.92
42603;BME280;28233;55.748;48.752;2023-07-09T03:45:09;98620.09;;;24.68;71.07
42603;BME280;28233;55.748;48.752;2023-07-09T03:47:12;98611.56;;;24.39;72.02
42603;BME280;28233;55.748;48.752;2023-07-09T03:49:15;98636.53;;;24.33;72.35
42603;BME280;28233;55.748;48.752;2023-07-09T03:51:18;98658.44;;;24.22;73.22
42603;BME280;28233;55.748;48.752;2023-07-09T03:53:21;98653.66;;;24.22;73.28
42603;BME280;28233;55.748;48.752;2023-07-09T03:55:24;98619.31;;;24.15;72.71
42603;BME280;28233;55.748;48.752;2023-07-09T03:57:29;98617.97;;;24.03;72.20
42603;BME280;28233;55.748;48.752;2023-07-09T03:59:32;98637.72;;;23.99;72.84
42603;BME280;28233;55.748;48.752;2023-07-09T04:01:35;98663.81;;;23.96;72.54
42603;BME280;28233;55.748;48.752;2023-07-09T04:03:37;98649.94;;;24.09;72.37
42603;BME280;28233;55.748;48.752;2023-07-09T04:05:40;98638.59;;;24.13;72.18
42603;BME280;28233;55.748;48.752;2023-07-09T04:07:43;98627.06;;;24.11;72.52
42603;BME280;28233;55.748;48.752;2023-07-09T04:09:46;98642.66;;;24.12;72.08
42603;BME280;28233;55.748;48.752;2023-07-09T04:11:49;98639.56;;;24.06;72.00
42603;BME280;28233;55.748;48.752;2023-07-09T04:13:52;98638.75;;;24.05;72.58
42603;BME280;28233;55.748;48.752;2023-07-09T04:15:56;98643.69;;;24.01;72.79
42603;BME280;28233;55.748;48.752;2023-07-09T04:17:59;98641.88;;;23.91;72.91
42603;BME280;28233;55.748;48.752;2023-07-09T04:20:02;98627.66;;;23.82;73.76
42603;BME280;28233;55.748;48.752;2023-07-09T04:22:10;98627.16;;;23.87;74.03
42603;BME280;28233;55.748;48.752;2023-07-09T04:24:16;98637.94;;;23.69;74.26
42603;BME280;28233;55.748;48.752;2023-07-09T04:26:19;98638.44;;;23.63;74.39
42603;BME280;28233;55.748;48.752;2023-07-09T04:28:22;98641.25;;;23.63;74.65
42603;BME280;28233;55.748;48.752;2023-07-09T04:30:25;98645.63;;;23.64;75.10
42603;BME280;28233;55.748;48.752;2023-07-09T04:32:28;98643.69;;;23.61;74.97
42603;BME280;28233;55.748;48.752;2023-07-09T04:34:31;98637.63;;;23.63;75.21
42603;BME280;28233;55.748;48.752;2023-07-09T04:36:34;98635.91;;;23.69;74.52
42603;BME280;28233;55.748;48.752;2023-07-09T04:38:37;98619.16;;;23.66;73.96
42603;BME280;28233;55.748;48.752;2023-07-09T04:40:40;98642.72;;;23.68;74.00
42603;BME280;28233;55.748;48.752;2023-07-09T04:42:43;98634.03;;;23.62;74.28
42603;BME280;28233;55.748;48.752;2023-07-09T04:44:46;98627.44;;;23.53;74.27
42603;BME280;28233;55.748;48.752;2023-07-09T04:46:49;98612.69;;;23.49;74.60
42603;BME280;28233;55.748;48.752;2023-07-09T04:48:52;98619.16;;;23.46;75.18
42603;BME280;28233;55.748;48.752;2023-07-09T04:50:54;98618.09;;;23.59;74.73
42603;BME280;28233;55.748;48.752;2023-07-09T04:52:58;98617.81;;;23.74;74.17
42603;BME280;28233;55.748;48.752;2023-07-09T04:55:01;98609.69;;;23.79;73.82
42603;BME280;28233;55.748;48.752;2023-07-09T04:57:05;98603.13;;;23.86;73.52
42603;BME280;28233;55.748;48.752;2023-07-09T04:59:08;98623.31;;;23.97;73.16
42603;BME280;28233;55.748;48.752;2023-07-09T05:01:11;98623.06;;;23.92;72.91
42603;BME280;28233;55.748;48.752;2023-07-09T05:03:14;98630.41;;;23.86;73.15
42603;BME280;28233;55.748;48.752;2023-07-09T05:05:17;98627.28;;;23.80;73.40
42603;BME280;28233;55.748;48.752;2023-07-09T05:07:20;98632.91;;;23.80;73.57
42603;BME280;28233;55.748;48.752;2023-07-09T05:09:23;98639.59;;;23.86;73.58
42603;BME280;28233;55.748;48.752;2023-07-09T05:11:26;98630.25;;;23.93;73.41
42603;BME280;28233;55.748;48.752;2023-07-09T05:13:29;98620.59;;;23.94;72.27
42603;BME280;28233;55.748;48.752;2023-07-09T05:15:31;98635.06;;;23.92;72.99
42603;BME280;28233;55.748;48.752;2023-07-09T05:17:34;98632.41;;;23.85;72.55
42603;BME280;28233;55.748;48.752;2023-07-09T05:19:38;98643.28;;;23.83;72.43
42603;BME280;28233;55.748;48.752;2023-07-09T05:21:41;98645.50;;;23.92;72.84
42603;BME280;28233;55.748;48.752;2023-07-09T05:23:43;98640.84;;;23.85;71.45
42603;BME280;28233;55.748;48.752;2023-07-09T05:25:46;98652.09;;;23.81;71.67
42603;BME280;28233;55.748;48.752;2023-07-09T05:27:49;98652.19;;;23.78;71.78
42603;BME280;28233;55.748;48.752;2023-07-09T05:29:52;98657.44;;;23.76;72.25
42603;BME280;28233;55.748;48.752;2023-07-09T05:31:54;98656.22;;;23.77;72.70
42603;BME280;28233;55.748;48.752;2023-07-09T05:33:59;98658.06;;;23.63;73.23
42603;BME280;28233;55.748;48.752;2023-07-09T05:36:02;98658.13;;;23.60;73.74
42603;BME280;28233;55.748;48.752;2023-07-09T05:38:05;98657.56;;;23.69;73.19
42603;BME280;28233;55.748;48.752;2023-07-09T05:40:08;98649.31;;;23.81;72.94
42603;BME280;28233;55.748;48.752;2023-07-09T05:42:11;98655.06;;;23.94;72.22
42603;BME280;28233;55.748;48.752;2023-07-09T05:44:14;98648.78;;;24.07;71.72
42603;BME280;28233;55.748;48.752;2023-07-09T05:46:17;98648.09;;;24.19;71.13
42603;BME280;28233;55.748;48.752;2023-07-09T05:48:19;98645.06;;;24.30;70.56
42603;BME280;28233;55.748;48.752;2023-07-09T05:50:22;98633.03;;;24.45;69.87
42603;BME280;28233;55.748;48.752;2023-07-09T05:52:25;98635.03;;;24.65;69.42
42603;BME280;28233;55.748;48.752;2023-07-09T05:54:28;98632.91;;;24.85;67.92
42603;BME280;28233;55.748;48.752;2023-07-09T05:56:31;98633.44;;;24.80;68.17
42603;BME280;28233;55.748;48.752;2023-07-09T05:58:34;98626.41;;;24.88;68.06
42603;BME280;28233;55.748;48.752;2023-07-09T06:00:36;98616.28;;;25.07;67.06
42603;BME280;28233;55.748;48.752;2023-07-09T06:02:40;98619.63;;;25.19;67.36
42603;BME280;28233;55.748;48.752;2023-07-09T06:04:43;98614.22;;;25.41;66.61
42603;BME280;28233;55.748;48.752;2023-07-09T06:06:46;98616.84;;;25.61;66.00
42603;BME280;28233;55.748;48.752;2023-07-09T06:08:49;98614.06;;;25.73;64.83
42603;BME280;28233;55.748;48.752;2023-07-09T06:10:59;98611.84;;;25.81;64.29
42603;BME280;28233;55.748;48.752;2023-07-09T06:13:02;98607.69;;;25.86;64.28
42603;BME280;28233;55.748;48.752;2023-07-09T06:15:06;98602.19;;;25.95;63.56
42603;BME280;28233;55.748;48.752;2023-07-09T06:17:09;98615.28;;;26.02;63.29
42603;BME280;28233;55.748;48.752;2023-07-09T06:19:12;98608.19;;;25.97;63.17
42603;BME280;28233;55.748;48.752;2023-07-09T06:21:15;98605.72;;;25.99;62.70
42603;BME280;28233;55.748;48.752;2023-07-09T06:23:19;98603.00;;;26.08;62.72
42603;BME280;28233;55.748;48.752;2023-07-09T06:25:21;98601.09;;;26.18;61.61
42603;BME280;28233;55.748;48.752;2023-07-09T06:27:24;98602.78;;;26.41;60.83
42603;BME280;28233;55.748;48.752;2023-07-09T06:29:27;98596.00;;;26.51;60.59
42603;BME280;28233;55.748;48.752;2023-07-09T06:31:30;98600.03;;;26.50;60.06
42603;BME280;28233;55.748;48.752;2023-07-09T06:33:35;98598.75;;;26.29;60.40
42603;BME280;28233;55.748;48.752;2023-07-09T06:35:38;98594.34;;;26.28;60.27
42603;BME280;28233;55.748;48.752;2023-07-09T06:37:42;98590.63;;;26.19;60.96
42603;BME280;28233;55.748;48.752;2023-07-09T06:39:44;98587.34;;;26.07;61.54
42603;BME280;28233;55.748;48.752;2023-07-09T06:41:48;98589.25;;;26.10;62.14
42603;BME280;28233;55.748;48.752;2023-07-09T06:43:51;98604.59;;;26.22;61.07
42603;BME280;28233;55.748;48.752;2023-07-09T06:45:55;98615.19;;;26.18;61.15
42603;BME280;28233;55.748;48.752;2023-07-09T06:47:58;98611.00;;;25.97;61.83
42603;BME280;28233;55.748;48.752;2023-07-09T06:50:01;98614.28;;;26.08;61.46
42603;BME280;28233;55.748;48.752;2023-07-09T06:52:06;98610.56;;;26.11;61.63
42603;BME280;28233;55.748;48.752;2023-07-09T06:54:09;98616.97;;;26.25;61.68
42603;BME280;28233;55.748;48.752;2023-07-09T06:56:11;98618.78;;;26.44;61.20
42603;BME280;28233;55.748;48.752;2023-07-09T06:58:16;98619.75;;;26.50;60.82
42603;BME280;28233;55.748;48.752;2023-07-09T07:00:19;98602.31;;;26.43;60.81
42603;BME280;28233;55.748;48.752;2023-07-09T07:02:22;98609.06;;;26.45;60.29
42603;BME280;28233;55.748;48.752;2023-07-09T07:04:26;98622.38;;;26.70;59.93
42603;BME280;28233;55.748;48.752;2023-07-09T07:06:29;98639.13;;;26.87;59.25
42603;BME280;28233;55.748;48.752;2023-07-09T07:08:33;98637.00;;;26.91;58.60
42603;BME280;28233;55.748;48.752;2023-07-09T07:10:36;98641.38;;;27.05;58.17
42603;BME280;28233;55.748;48.752;2023-07-09T07:12:44;98643.84;;;27.03;58.17
42603;BME280;28233;55.748;48.752;2023-07-09T07:14:47;98647.47;;;26.90;58.57
42603;BME280;28233;55.748;48.752;2023-07-09T07:16:50;98642.47;;;27.07;58.28
42603;BME280;28233;55.748;48.752;2023-07-09T07:18:53;98642.09;;;27.31;58.09
42603;BME280;28233;55.748;48.752;2023-07-09T07:20:56;98652.72;;;27.27;57.04
42603;BME280;28233;55.748;48.752;2023-07-09T07:22:59;98650.56;;;27.31;57.80
42603;BME280;28233;55.748;48.752;2023-07-09T07:25:04;98646.88;;;27.43;57.86
42603;BME280;28233;55.748;48.752;2023-07-09T07:27:08;98642.44;;;27.55;57.77
42603;BME280;28233;55.748;48.752;2023-07-09T07:29:11;98643.75;;;27.63;56.34
42603;BME280;28233;55.748;48.752;2023-07-09T07:31:13;98645.06;;;27.71;56.89
42603;BME280;28233;55.748;48.752;2023-07-09T07:33:16;98647.81;;;27.62;56.67
42603;BME280;28233;55.748;48.752;2023-07-09T07:35:19;98658.44;;;27.58;56.72
42603;BME280;28233;55.748;48.752;2023-07-09T07:37:22;98665.22;;;27.26;57.25
42603;BME280;28233;55.748;48.752;2023-07-09T07:39:25;98655.28;;;27.34;58.10
42603;BME280;28233;55.748;48.752;2023-07-09T07:41:28;98652.78;;;27.58;57.19
42603;BME280;28233;55.748;48.752;2023-07-09T07:43:30;98652.28;;;27.72;56.36
42603;BME280;28233;55.748;48.752;2023-07-09T07:45:33;98642.84;;;27.66;56.83
42603;BME280;28233;55.748;48.752;2023-07-09T07:47:36;98637.53;;;27.68;57.67
42603;BME280;28233;55.748;48.752;2023-07-09T07:49:40;98645.59;;;27.57;57.76
42603;BME280;28233;55.748;48.752;2023-07-09T07:51:43;98645.06;;;27.49;58.42
42603;BME280;28233;55.748;48.752;2023-07-09T07:53:46;98631.84;;;27.46;58.70
42603;BME280;28233;55.748;48.752;2023-07-09T07:55:49;98640.47;;;27.43;59.12
42603;BME280;28233;55.748;48.752;2023-07-09T07:57:52;98626.44;;;27.52;59.09
42603;BME280;28233;55.748;48.752;2023-07-09T07:59:55;98637.25;;;27.31;58.47
42603;BME280;28233;55.748;48.752;2023-07-09T08:01:58;98633.44;;;27.12;58.72
42603;BME280;28233;55.748;48.752;2023-07-09T08:04:02;98639.00;;;27.03;59.08
42603;BME280;28233;55.748;48.752;2023-07-09T08:06:05;98631.44;;;27.00;59.17
42603;BME280;28233;55.748;48.752;2023-07-09T08:08:09;98633.38;;;26.90;59.83
42603;BME280;28233;55.748;48.752;2023-07-09T08:10:13;98638.22;;;26.90;60.48
42603;BME280;28233;55.748;48.752;2023-07-09T08:12:15;98630.78;;;26.83;61.01
42603;BME280;28233;55.748;48.752;2023-07-09T08:14:19;98633.41;;;26.77;61.09
42603;BME280;28233;55.748;48.752;2023-07-09T08:16:22;98626.09;;;26.67;61.92
42603;BME280;28233;55.748;48.752;2023-07-09T08:18:25;98640.97;;;26.55;62.38
42603;BME280;28233;55.748;48.752;2023-07-09T08:20:28;98624.97;;;26.52;62.94
42603;BME280;28233;55.748;48.752;2023-07-09T08:22:30;98615.03;;;26.73;62.91
42603;BME280;28233;55.748;48.752;2023-07-09T08:24:33;98632.00;;;26.95;62.33
42603;BME280;28233;55.748;48.752;2023-07-09T08:26:36;98619.91;;;27.20;62.17
42603;BME280;28233;55.748;48.752;2023-07-09T08:28:40;98623.13;;;27.31;61.26
42603;BME280;28233;55.748;48.752;2023-07-09T08:30:43;98620.25;;;27.44;61.06
42603;BME280;28233;55.748;48.752;2023-07-09T08:32:46;98610.03;;;27.59;60.95
42603;BME280;28233;55.748;48.752;2023-07-09T08:34:49;98620.94;;;27.79;59.00
42603;BME280;28233;55.748;48.752;2023-07-09T08:37:12;98621.81;;;27.89;58.88
42603;BME280;28233;55.748;48.752;2023-07-09T08:39:15;98606.63;;;28.18;59.02
42603;BME280;28233;55.748;48.752;2023-07-09T08:43:53;98612.03;;;28.34;56.41
42603;BME280;28233;55.748;48.752;2023-07-09T08:46:27;98607.06;;;28.48;56.76
42603;BME280;28233;55.748;48.752;2023-07-09T08:48:34;98609.44;;;28.58;56.87
42603;BME280;28233;55.748;48.752;2023-07-09T08:50:48;98606.34;;;28.65;55.38
42603;BME280;28233;55.748;48.752;2023-07-09T08:52:55;98608.84;;;28.63;55.08
42603;BME280;28233;55.748;48.752;2023-07-09T08:55:09;98592.84;;;28.70;55.48
42603;BME280;28233;55.748;48.752;2023-07-09T08:59:20;98603.97;;;28.73;56.33
42603;BME280;28233;55.748;48.752;2023-07-09T09:01:31;98600.41;;;28.82;55.73
42603;BME280;28233;55.748;48.752;2023-07-09T09:03:43;98595.53;;;28.82;54.84
42603;BME280;28233;55.748;48.752;2023-07-09T09:05:49;98597.25;;;28.80;55.41
42603;BME280;28233;55.748;48.752;2023-07-09T09:10:33;98596.59;;;28.76;54.08
42603;BME280;28233;55.748;48.752;2023-07-09T09:12:40;98590.94;;;28.76;54.76
42603;BME280;28233;55.748;48.752;2023-07-09T09:14:49;98593.78;;;28.85;54.89
42603;BME280;28233;55.748;48.752;2023-07-09T09:16:55;98595.69;;;29.06;54.14
42603;BME280;28233;55.748;48.752;2023-07-09T09:19:00;98584.88;;;29.05;53.13
42603;BME280;28233;55.748;48.752;2023-07-09T09:21:22;98593.19;;;28.99;53.22
42603;BME280;28233;55.748;48.752;2023-07-09T09:23:36;98592.72;;;29.01;52.83
42603;BME280;28233;55.748;48.752;2023-07-09T09:25:42;98593.34;;;28.86;53.96
42603;BME280;28233;55.748;48.752;2023-07-09T09:27:49;98587.81;;;28.83;54.10
42603;BME280;28233;55.748;48.752;2023-07-09T09:29:52;98585.75;;;28.65;53.92
42603;BME280;28233;55.748;48.752;2023-07-09T09:31:57;98586.31;;;28.41;54.74
42603;BME280;28233;55.748;48.752;2023-07-09T09:34:01;98582.66;;;28.32;55.62
42603;BME280;28233;55.748;48.752;2023-07-09T09:36:04;98572.28;;;28.29;55.36
42603;BME280;28233;55.748;48.752;2023-07-09T09:38:17;98574.00;;;28.26;55.85
42603;BME280;28233;55.748;48.752;2023-07-09T09:40:23;98566.47;;;28.23;56.01
42603;BME280;28233;55.748;48.752;2023-07-09T09:42:26;98567.91;;;28.28;56.58
42603;BME280;28233;55.748;48.752;2023-07-09T09:44:29;98566.34;;;28.36;57.02
42603;BME280;28233;55.748;48.752;2023-07-09T09:46:33;98563.69;;;28.41;56.87
42603;BME280;28233;55.748;48.752;2023-07-09T09:48:36;98567.97;;;28.46;56.87
42603;BME280;28233;55.748;48.752;2023-07-09T09:50:40;98567.16;;;28.45;56.70
42603;BME280;28233;55.748;48.752;2023-07-09T09:52:44;98568.16;;;28.61;57.04
42603;BME280;28233;55.748;48.752;2023-07-09T09:55:03;98563.63;;;28.73;56.37
42603;BME280;28233;55.748;48.752;2023-07-09T09:57:22;98558.44;;;28.71;55.83
42603;BME280;28233;55.748;48.752;2023-07-09T09:59:36;98562.88;;;28.91;55.95
42603;BME280;28233;55.748;48.752;2023-07-09T10:01:40;98551.91;;;29.11;54.86
42603;BME280;28233;55.748;48.752;2023-07-09T10:03:42;98553.31;;;29.25;54.66
42603;BME280;28233;55.748;48.752;2023-07-09T10:05:56;98559.59;;;29.29;54.24
42603;BME280;28233;55.748;48.752;2023-07-09T10:08:09;98561.78;;;29.34;53.04
42603;BME280;28233;55.748;48.752;2023-07-09T10:10:20;98547.16;;;29.45;52.77
42603;BME280;28233;55.748;48.752;2023-07-09T10:12:43;98552.19;;;29.50;53.14
42603;BME280;28233;55.748;48.752;2023-07-09T10:17:38;98554.69;;;29.48;52.62
42603;BME280;28233;55.748;48.752;2023-07-09T10:19:59;98559.41;;;29.51;53.62
42603;BME280;28233;55.748;48.752;2023-07-09T10:32:08;98538.06;;;29.32;52.85
42603;BME280;28233;55.748;48.752;2023-07-09T10:34:21;98536.34;;;29.25;53.43
42603;BME280;28233;55.748;48.752;2023-07-09T10:39:19;98532.19;;;29.44;52.60
42603;BME280;28233;55.748;48.752;2023-07-09T10:41:25;98529.09;;;29.42;52.75
42603;BME280;28233;55.748;48.752;2023-07-09T10:43:51;98524.84;;;29.38;52.92
42603;BME280;28233;55.748;48.752;2023-07-09T10:45:59;98524.69;;;29.32;53.47
42603;BME280;28233;55.748;48.752;2023-07-09T10:48:20;98522.16;;;29.34;52.55
42603;BME280;28233;55.748;48.752;2023-07-09T10:50:36;98516.84;;;29.36;53.16
42603;BME280;28233;55.748;48.752;2023-07-09T10:52:42;98516.50;;;29.34;53.23
42603;BME280;28233;55.748;48.752;2023-07-09T10:54:59;98513.22;;;29.26;52.88
42603;BME280;28233;55.748;48.752;2023-07-09T10:57:48;98515.63;;;29.19;52.95
42603;BME280;28233;55.748;48.752;2023-07-09T10:59:51;98511.69;;;29.07;53.57
42603;BME280;28233;55.748;48.752;2023-07-09T11:02:01;98511.53;;;29.11;53.37
42603;BME280;28233;55.748;48.752;2023-07-09T11:04:31;98518.44;;;29.10;52.69
42603;BME280;28233;55.748;48.752;2023-07-09T11:06:43;98512.94;;;29.15;52.58
42603;BME280;28233;55.748;48.752;2023-07-09T11:08:49;98513.88;;;29.31;52.51
42603;BME280;28233;55.748;48.752;2023-07-09T11:10:56;98500.94;;;29.48;52.07
42603;BME280;28233;55.748;48.752;2023-07-09T11:13:26;98505.28;;;29.58;51.85
42603;BME280;28233;55.748;48.752;2023-07-09T11:15:49;98499.91;;;29.79;52.41
42603;BME280;28233;55.748;48.752;2023-07-09T11:17:53;98504.06;;;30.02;51.74
42603;BME280;28233;55.748;48.752;2023-07-09T11:19:59;98507.25;;;30.28;50.32